• Join FlightAware (Why Join?)
  • Login
  • US Flag 
01:53AM EDT


 

Airport Tracker/Info


-or-


 

Live Flight TrackerFlight Track Log ✈ AAL1862 ✈ 21-Jun-2013 ✈ KDFW - KSTL

Flight Track Log - Related Links

Times and Time Zones

All times are in EDT time to prevent confusion due to time zone crossing. See the AAL1862 flight status page for this flight to view local times or setup timezone preferences in your user account.

Time Position Orientation Groundspeed Altitude Reporting Facility
EDT Latitude Longitude Course Direction KTS MPH feet Rate Location/Type
07:43AM 32.8833 -97.0500 357° North 156 180 1,600  Level Dallas / Fort Worth TRACON
07:45AM 32.8000 -97.0667 190° South 242 278 4,200 2,220 Climbing Dallas / Fort Worth TRACON
07:46AM 32.8433 -96.8013 10° North  Level FlightAware Approximate
07:46AM 32.7667 -97.1333 239° Southwest 271 312 7,100  Level Dallas / Fort Worth TRACON
07:47AM 32.9593 -96.8000 North  Level FlightAware Approximate
07:47AM 32.8728 -97.1486 353° North 286 329 10,500  Level Fort Worth Center
07:48AM 33.0753 -96.8006 357° North  Level FlightAware Approximate
07:48AM 32.9644 -97.1089 20° North 305 351 11,700  Level Fort Worth Center
07:49AM 33.1911 -96.8089 357° North  Level FlightAware Approximate
07:49AM 33.0583 -97.0542 26° Northeast 339 390 14,200  Level Fort Worth Center
07:50AM 33.1603 -96.9942 26° Northeast 391 450 16,700 1,920 Climbing Fort Worth Center
07:51AM 33.2625 -96.9314 27° Northeast 407 468 18,100 2,040 Climbing Fort Worth Center
07:52AM 33.3667 -96.8589 30° Northeast 421 484 20,800 2,100 Climbing Fort Worth Center
07:53AM 33.4497 -96.7861 36° Northeast 421 484 22,300 1,560 Climbing Fort Worth Center
07:54AM 33.5639 -96.6906 35° Northeast 427 491 24,000 1,680 Climbing Fort Worth Center
07:55AM 33.6658 -96.6047 35° Northeast 440 506 25,700 1,440 Climbing Fort Worth Center
07:56AM 33.7694 -96.5164 35° Northeast 450 518 26,900 1,260 Climbing Fort Worth Center
07:57AM 33.8794 -96.4278 34° Northeast 455 524 28,300 1,020 Climbing Fort Worth Center
07:58AM 33.9872 -96.3364 35° Northeast 465 535 29,000 300 Climbing Fort Worth Center
07:59AM 34.0928 -96.2472 35° Northeast 465 535 29,000  Level Fort Worth Center
08:00AM 34.1922 -96.1606 36° Northeast 460 529 29,000  Level Fort Worth Center
08:01AM 34.2997 -96.0686 35° Northeast 460 529 29,000  Level Fort Worth Center
08:02AM 34.4050 -95.9764 36° Northeast 460 529 29,000  Level Fort Worth Center
08:03AM 34.5106 -95.8864 35° Northeast 460 529 29,000  Level Fort Worth Center
08:04AM 34.6178 -95.7936 35° Northeast 460 529 29,000  Level Fort Worth Center
08:05AM 34.7250 -95.7006 35° Northeast 466 536 29,000  Level Fort Worth Center
08:06AM 34.8322 -95.6100 35° Northeast 466 536 29,000  Level Fort Worth Center
08:07AM 34.9414 -95.5189 34° Northeast 466 536 29,000  Level Fort Worth Center
08:09AM 35.1297 -95.3503 36° Northeast 467 537 29,000  Level Kansas City Center
08:10AM 35.2361 -95.2569 36° Northeast 470 541 29,000  Level Kansas City Center
08:11AM 35.3417 -95.1644 36° Northeast 468 539 29,000  Level Kansas City Center
08:12AM 35.4478 -95.0711 36° Northeast 470 541 29,000  Level Kansas City Center
08:13AM 35.5753 -94.9592 36° Northeast 467 537 29,000  Level Memphis Center
08:14AM 35.6789 -94.8653 36° Northeast 467 537 29,000  Level Memphis Center
08:15AM 35.7867 -94.7689 36° Northeast 467 537 29,000  Level Memphis Center
08:16AM 35.8942 -94.6772 35° Northeast 467 537 29,000  Level Memphis Center
08:17AM 35.9975 -94.5825 37° Northeast 467 537 29,000  Level Memphis Center
08:18AM 36.1028 -94.4903 35° Northeast 467 537 29,000  Level Memphis Center
08:19AM 36.2058 -94.3953 37° Northeast 467 537 29,000  Level Memphis Center
08:20AM 36.3081 -94.3031 36° Northeast 464 534 29,000  Level Kansas City Center
08:21AM 36.4128 -94.2069 36° Northeast 466 536 29,000  Level Kansas City Center
08:22AM 36.5389 -94.0933 36° Northeast 467 537 29,000  Level Kansas City Center
08:23AM 36.6433 -93.9989 36° Northeast 465 535 29,000  Level Kansas City Center
08:24AM 36.7458 -93.9031 37° Northeast 462 532 29,000  Level Kansas City Center
08:25AM 36.8517 -93.8058 36° Northeast 468 539 29,000  Level Kansas City Center
08:26AM 36.9572 -93.7050 37° Northeast 462 532 29,000  Level Kansas City Center
08:28AM 37.0619 -93.6067 37° Northeast 466 536 29,000  Level Kansas City Center
08:29AM 37.1672 -93.5114 36° Northeast 466 536 29,000  Level Kansas City Center
08:30AM 37.2733 -93.4153 36° Northeast 468 539 29,000  Level Kansas City Center
08:31AM 37.3756 -93.3158 38° Northeast 465 535 29,000  Level Kansas City Center
08:32AM 37.4683 -93.2044 44° Northeast 461 531 29,000  Level Kansas City Center
08:33AM 37.5617 -93.0933 43° Northeast 461 531 29,000  Level Kansas City Center
08:34AM 37.6581 -92.9842 42° Northeast 463 533 29,000  Level Kansas City Center
08:35AM 37.7508 -92.8717 44° Northeast 462 532 29,000  Level Kansas City Center
08:36AM 37.8592 -92.7447 43° Northeast 459 528 29,000  Level Kansas City Center
08:37AM 37.9522 -92.6347 43° Northeast 459 528 29,000  Level Kansas City Center
08:38AM 38.0458 -92.5239 43° Northeast 463 533 29,000  Level Kansas City Center
08:39AM 38.1414 -92.4144 42° Northeast 463 533 29,000  Level Kansas City Center
08:40AM 38.2422 -92.2867 45° Northeast 458 527 29,000  Level Kansas City Center
08:41AM 38.3342 -92.1750 44° Northeast 455 524 29,000 -840 Level Kansas City Center
08:42AM 38.4269 -92.0625 44° Northeast 456 525 27,300 -2,160 Descending Kansas City Center
08:43AM 38.5164 -91.9533 44° Northeast 448 516 24,600 -2,820 Descending Kansas City Center
08:44AM 38.6047 -91.8475 43° Northeast 437 503 21,600 -2,700 Descending Kansas City Center
08:45AM 38.6850 -91.7372 47° Northeast 425 489 19,100 -2,700 Descending Kansas City Center
08:46AM 38.6989 -91.6011 83° East 389 448 16,100 -2,700 Descending Kansas City Center
08:47AM 38.6917 -91.4664 94° East 380 437 13,600 -2,340 Descending Kansas City Center
08:48AM 38.6931 -91.3356 89° East 361 415 11,400 -1,320 Descending Kansas City Center
08:49AM 38.6947 -91.2142 89° East 346 398 11,000 -240 Descending Kansas City Center
08:50AM 38.6944 -91.0922 90° East 344 396 11,000 -420 Level Kansas City Center
08:51AM 38.7186 -90.9831 74° East 318 366 10,200 -1,140 Descending Kansas City Center
08:52AM 38.7425 -90.8822 73° East 300 345 8,700 -1,740 Descending Kansas City Center
08:53AM 38.7958 -90.7825 56° Northeast 290 334 6,700 -1,860 Descending Kansas City Center
08:54AM 38.8178 -90.6908 73° East 284 327 5,000 -1,620 Descending Kansas City Center
08:55AM 38.8169 -90.5883 91° East 287 330 3,500 -1,500 Descending Kansas City Center